LES MASIES DE RODA (Osona)





Hora UTC 09:50
Temperatura 9.6 ºC
Sòl 15 cm 9.1 ºC
Subsòl 10 cm 9.0 ºC
Humitat 92.2 %
Pressió 1003.0 hPa
Pluja 0.3 mm
Velocitat vent 9.1 km/h
Direcció vent WNW
Radiació solar 52.5 W/m²

Dades diàries 2022-12-10



Hora UTC (hivern +1h; estiu +2h)
Temperatura (ºC) Humitat (%) Pressió (hPa) Velocitat vent (km/h) Precipitació (mm) Radiació solar (W/m²)
Hora UTC Aire Sòl 15 cm Subsòl 10 cm Humitat Pressió Vel. Dir. Vel. Max Dir. Intent. màx 5 min. Rad. Sol.
00:05 9.2 8.1 9.5 94.8 999.8 1.3 E 1.3 E 0.0 0.1
00:10 9.2 8.1 9.5 94.8 999.7 0.1 E 2.1 E 0.0 0.1
00:15 9.1 8.0 9.5 94.8 999.8 0.0 NNE 0.0 E 0.0 0.1
00:20 9.0 7.9 9.5 94.8 999.7 1.7 NNW 3.5 NNW 0.0 0.1
00:25 8.9 7.9 9.4 94.9 999.7 2.6 N 3.5 N 0.1 0.1
00:30 8.9 7.9 9.4 94.9 999.7 1.7 N 3.2 N 0.0 0.1
00:35 8.9 7.8 9.4 95.0 999.7 0.0 NNE 0.0 N 0.0 0.1
00:40 8.9 7.7 9.4 95.0 999.7 0.0 NNE 0.0 N 0.0 0.1
00:45 9.0 7.8 9.3 95.0 999.7 0.0 NNE 0.0 N 0.0 0.1
00:50 9.0 7.9 9.3 95.0 999.7 0.0 NNE 0.0 N 0.0 0.1
00:55 8.9 7.9 9.3 95.0 999.6 0.0 NNE 0.0 N 0.0 0.1
01:00 8.9 7.9 9.3 95.0 999.6 0.0 NNE 0.0 N 0.0 0.1
01:05 8.9 7.9 9.3 95.0 999.6 0.0 NNE 0.0 N 0.0 0.1
01:10 9.0 8.0 9.3 95.1 999.6 0.0 NNE 0.0 N 0.0 0.1
01:15 9.0 8.0 9.3 95.0 999.6 0.0 NNE 0.0 N 0.0 0.1
01:20 8.9 8.1 9.3 95.0 999.7 0.0 NNE 0.0 N 0.0 0.1
01:25 8.9 8.0 9.3 95.0 999.6 0.0 NNE 0.0 N 0.0 0.1
01:30 8.8 8.0 9.2 95.0 999.7 0.0 NNE 0.0 N 0.1 0.1
01:35 8.8 7.9 9.2 95.0 999.7 0.0 NNE 0.0 N 0.0 0.1
01:40 8.8 7.9 9.2 95.0 999.7 0.0 NNE 0.0 N 0.0 0.1
01:45 8.8 7.9 9.2 95.0 999.7 0.0 NNE 0.0 N 0.0 0.1
01:50 8.8 7.9 9.2 95.0 999.8 0.0 NNE 0.0 N 0.0 0.1
01:55 8.8 7.9 9.2 95.0 999.8 0.0 NNE 0.0 N 0.0 0.1
02:00 8.8 7.9 9.2 95.0 999.8 0.0 NNE 0.0 N 0.0 0.1
02:05 8.8 7.8 9.1 95.0 999.8 0.0 NNE 0.0 N 0.0 0.1
02:10 8.7 7.7 9.1 95.0 999.8 0.0 NNE 0.0 N 0.0 0.1
02:15 8.6 7.7 9.1 95.0 999.9 0.0 NNE 0.0 N 0.0 0.1
02:20 8.6 7.6 9.1 95.0 999.9 0.0 NNE 0.0 N 0.0 0.1
02:25 8.6 7.5 9.1 95.0 999.9 0.0 NNE 0.0 N 0.0 0.1
02:30 8.5 7.5 9.0 95.0 999.9 0.0 NNE 0.0 N 0.0 0.1
02:35 8.5 7.4 9.0 95.0 999.9 0.0 NNE 0.0 N 0.0 0.1
02:40 8.5 7.4 9.0 95.0 999.9 0.0 NNE 0.0 N 0.0 0.1
02:45 8.5 7.5 9.0 95.0 1000.0 0.0 NNE 0.0 N 0.0 0.1
02:50 8.4 7.4 9.0 95.0 1000.0 0.0 NNE 0.0 N 0.0 0.1
02:55 8.3 7.2 8.9 95.0 1000.0 0.0 NNE 0.0 N 0.1 0.1
03:00 8.2 7.0 8.9 95.0 1000.0 0.0 NNE 0.0 N 0.0 0.1
03:05 8.2 7.0 8.9 95.1 1000.0 2.4 N 3.5 N 0.0 0.1
03:10 8.2 7.1 8.9 95.1 1000.1 0.5 ENE 3.2 ESE 0.0 0.1
03:15 8.3 7.3 8.8 95.1 1000.1 0.7 ESE 2.5 ESE 0.0 0.1
03:20 8.3 7.4 8.8 95.1 1000.1 2.2 ESE 4.2 E 0.0 0.1
03:25 8.3 7.5 8.8 95.1 1000.0 0.8 ESE 2.8 ESE 0.0 0.1
03:30 8.3 7.6 8.8 95.1 1000.0 0.0 NNE 0.0 ESE 0.0 0.1
03:35 8.3 7.6 8.8 95.0 1000.0 0.0 NNE 0.0 NNW 0.0 0.1
03:40 8.3 7.6 8.8 95.1 1000.0 0.4 SE 2.8 SE 0.0 0.1
03:45 8.4 7.7 8.8 95.1 1000.0 3.0 ESE 5.0 ESE 0.0 0.1
03:50 8.5 7.7 8.8 95.1 1000.0 2.0 ESE 3.9 ESE 0.0 0.1
03:55 8.5 7.5 8.8 95.0 1000.0 1.4 ESE 2.8 ESE 0.0 0.1
04:00 8.4 7.5 8.8 95.0 1000.0 2.3 E 3.2 ESE 0.0 0.1
04:05 8.3 7.4 8.7 95.0 1000.1 1.3 ENE 2.1 ENE 0.0 0.1
04:10 8.3 7.4 8.7 95.0 1000.1 0.3 ENE 2.5 ENE 0.0 0.1
04:15 8.3 7.5 8.7 95.1 1000.1 1.2 E 4.2 E 0.0 0.1
04:20 8.4 7.7 8.7 95.1 1000.1 2.2 E 3.5 ESE 0.0 0.1
04:25 8.5 7.8 8.7 95.0 1000.2 2.7 E 4.6 E 0.0 0.1
04:30 8.5 8.0 8.7 95.0 1000.2 3.2 E 5.0 E 0.0 0.1
04:35 8.6 8.0 8.8 95.0 1000.2 3.2 ESE 5.0 ESE 0.0 0.1
04:40 8.6 8.0 8.7 95.1 1000.1 3.7 SE 6.0 SSE 0.0 0.1
04:45 8.6 8.1 8.7 95.0 1000.1 3.0 SSE 6.4 SSE 0.0 0.1
04:50 8.6 8.1 8.8 95.0 1000.2 2.2 S 5.3 SSW 0.0 0.1
04:55 8.7 8.1 8.7 95.0 1000.2 1.9 SSW 3.5 WSW 0.0 0.1
05:00 8.7 8.1 8.8 95.0 1000.2 2.3 WNW 3.2 W 0.0 0.1
05:05 8.6 8.1 8.8 95.0 1000.2 2.2 WNW 2.5 WNW 0.0 0.1
05:10 8.6 8.1 8.7 95.0 1000.2 1.2 WNW 2.8 WNW 0.0 0.1
05:15 8.6 8.0 8.7 95.1 1000.2 0.8 WNW 2.1 WNW 0.0 0.1
05:20 8.6 8.0 8.8 95.1 1000.2 0.0 NNE 0.0 WNW 0.0 0.1
05:25 8.6 8.0 8.8 95.1 1000.2 2.1 WSW 4.2 WSW 0.0 0.1
05:30 8.6 8.1 8.8 95.1 1000.3 2.9 W 3.9 W 0.0 0.1
05:35 8.6 8.1 8.7 95.1 1000.4 2.2 WSW 4.6 WSW 0.0 0.1
05:40 8.6 8.1 8.8 95.1 1000.4 3.1 W 4.2 W 0.0 0.1
05:45 8.5 8.1 8.7 95.1 1000.5 2.1 W 3.5 WNW 0.0 0.1
05:50 8.5 8.1 8.7 95.1 1000.6 3.7 WNW 5.3 WNW 0.0 0.1
05:55 8.5 8.1 8.8 95.1 1000.6 4.2 W 5.7 WNW 0.0 0.1
06:00 8.5 8.1 8.8 95.1 1000.6 3.4 W 5.3 W 0.0 0.1
06:05 8.5 8.1 8.7 95.1 1000.7 2.6 W 3.9 W 0.0 0.1
06:10 8.5 8.1 8.8 95.1 1000.7 3.1 W 3.9 WNW 0.0 0.1
06:15 8.5 8.1 8.8 95.1 1000.7 4.1 SW 6.0 SW 0.0 0.1
06:20 8.5 8.1 8.8 95.1 1000.7 3.8 WSW 6.0 WSW 0.0 0.1
06:25 8.5 8.1 8.8 95.1 1000.8 3.1 WSW 6.0 WSW 0.0 0.1
06:30 8.5 8.1 8.8 95.1 1000.9 3.8 WSW 5.7 SW 0.0 0.1
06:35 8.4 8.0 8.7 95.1 1001.1 3.3 W 5.3 WNW 0.0 0.1
06:40 8.4 8.0 8.8 95.0 1001.2 2.0 W 4.6 W 0.0 0.1
06:45 8.4 8.0 8.7 95.0 1001.2 1.7 WSW 3.9 WSW 0.0 0.1
06:50 8.4 8.0 8.7 95.0 1001.3 1.1 SW 3.2 SW 0.0 0.1
06:55 8.4 8.0 8.7 95.0 1001.3 0.0 NNE 0.0 SW 0.0 0.2
07:00 8.4 8.0 8.7 94.9 1001.3 0.8 S 3.5 SSE 0.0 0.3
07:05 8.5 8.0 8.7 94.9 1001.3 1.2 SSE 3.2 SSE 0.0 0.5
07:10 8.5 8.0 8.8 94.8 1001.4 0.9 SE 2.8 SE 0.0 0.9
07:15 8.5 8.1 8.7 94.8 1001.4 2.7 ENE 4.2 ENE 0.0 1.1
07:20 8.6 8.1 8.7 94.7 1001.5 1.2 NNE 3.2 N 0.0 1.3
07:25 8.6 8.1 8.7 94.7 1001.5 0.7 N 3.5 NNW 0.0 1.9
07:30 8.6 8.1 8.8 94.6 1001.5 0.5 NNE 2.5 N 0.0 2.3
07:35 8.6 8.1 8.7 94.6 1001.6 0.0 NNE 0.0 NNE 0.0 2.7
07:40 8.6 8.2 8.7 94.6 1001.6 0.0 NNE 0.0 NNE 0.0 3.7
07:45 8.6 8.2 8.8 94.6 1001.6 0.0 NNE 0.0 NNE 0.0 6.1
07:50 8.6 8.2 8.8 94.6 1001.6 0.1 NE 1.8 NE 0.0 7.0
07:55 8.6 8.2 8.8 94.5 1001.7 0.7 NNE 2.5 NNE 0.0 8.3
08:00 8.6 8.2 8.8 94.5 1001.8 0.0 NNE 0.0 NE 0.0 7.3
08:05 8.6 8.2 8.8 94.5 1001.8 0.0 NNE 0.0 NE 0.0 7.1
08:10 8.6 8.2 8.8 94.4 1001.8 0.0 NNE 0.0 NE 0.0 8.5
08:15 8.6 8.3 8.8 94.4 1001.9 0.0 NNE 0.0 NE 0.0 14.8
08:20 8.7 8.3 8.8 94.4 1002.0 0.7 NNW 3.5 NNW 0.0 10.8
08:25 8.7 8.3 8.8 94.3 1002.1 1.1 NNE 3.2 N 0.0 6.5
08:30 8.7 8.3 8.8 94.3 1002.2 0.7 WSW 2.8 NNW 0.0 16.4
08:35 8.7 8.5 8.8 94.3 1002.3 1.6 NW 3.9 NNW 0.0 29.9
08:40 8.8 8.5 8.8 94.2 1002.4 0.2 NW 1.8 NW 0.0 30.2
08:45 8.8 8.5 8.8 94.2 1002.4 1.5 WNW 3.5 NNW 0.0 28.3
08:50 8.9 8.6 8.8 94.1 1002.4 0.2 NNW 2.1 NW 0.0 29.1
08:55 8.9 8.6 8.9 94.1 1002.5 2.9 N 5.0 N 0.0 12.9
09:00 8.9 8.6 8.9 94.0 1002.6 3.1 N 3.9 NNW 0.0 10.5
09:05 9.0 8.6 8.9 94.0 1002.7 3.9 N 8.5 N 0.0 29.4
09:10 9.1 8.8 8.9 93.9 1002.6 3.5 NW 6.0 NNW 0.0 46.3
09:15 9.2 9.1 8.9 93.8 1002.6 1.9 W 3.9 WSW 0.0 53.5
09:20 9.2 9.1 9.0 93.7 1002.7 1.0 SSW 2.8 SW 0.0 30.0
09:25 9.2 9.1 9.0 93.7 1002.7 2.9 WSW 4.6 W 0.0 39.3
09:30 9.2 9.2 9.0 93.6 1002.8 3.0 NW 6.7 NNW 0.0 34.7
09:35 9.3 9.0 9.0 93.5 1002.9 7.5 NW 13.4 NW 0.0 31.8
09:40 9.3 8.9 9.0 93.2 1002.8 10.2 WNW 18.7 W 0.0 33.8
09:45 9.5 9.0 9.0 92.8 1002.9 8.0 WNW 13.8 NW 0.0 42.2
09:50 9.6 9.1 9.0 92.2 1003.0 9.1 WNW 13.1 WNW 0.0 52.5
Màxima 9.6 9.2 9.5 95.1 1003.0 10.2 WNW 18.7 W 0.1 53.5
Mínima 8.1 7.0 8.7 92.2 999.6
Total 0.3